Aeroporto :







RITROVATECI SU...

 
LOGIN :

Iscrizione | Disclaimer

   EN    FR    IT 

 









Sommario :    VFR   VFR Marginale   IFR   IFR Intensivo   IFR Molto Intensivo
Visibilità : 
Base nubi : 
>= 8 km
>= 3000ft
5 / 8 km
1000 / 3000 ft
1500m / 5 km
500 / 1000 ft
800 / 1500m
200 / 500 ft
< 800m
< 200 ft
Simboli :   Temporali  Nebbia  Neve Forte  Precipitazioni Forti  Vento > 20 kt






- Altitudine del aeroporto : 1442 ft
- Codice IATA : ZUM


CZUM - Churchill Falls

ULTIMO METAR :
  • 160800Z AUTO 27010G26KT 3/4SM -SN VV012 M10/M13 A2861 RMK SLP714

METARs OBSOLETI :
  • 160749Z AUTO 27014G24KT 220V300 3/4SM -SN VV010 M10/M12 A2860 RMK SLP713
  • 160700Z AUTO 27013G23KT 230V300 5/8SM -SN VV011 M08/M10 A2858 RMK SLP704
  • 160640Z AUTO 26012G21KT 1/2SM SN VV010 M08/M09 A2857 RMK SLP701
  • 160600Z AUTO 26011G18KT 220V290 5/8SM -SN VV011 M06/M08 A2855 RMK PCPN 1.0MM PAST HR SLP692
  • 160542Z AUTO 26010G16KT 1/2SM SN VV010 M06/M08 A2853 RMK SLP687

TAF TAF CZUM
Valido dal 16 a 08 ore il 16 a 20 ore UTC


160738Z 1608/1620 27015G25KT 3/4SM -SN BLSN VV008
TEMPO 1608/1620 27025G35KT 21/2SM -SN OVC015 RMK FCST BASED ON AUTO OBS. NXT FCST BY 161400Z



MetMap, La meteo Aeronautica in un colpo d'occhio ! - Copyright ORBIFLY Dicembre 2007 - Disclaimer

ORBIFLY MET'MAP TEAM :

Programmazione e sviluppo : Alexandra Zaïnal
Concezione : Baudouin d'Aumeries
Aiuto per la programmazione : Marc-Olivier Méhu
Supporto tecnico e logistico : Manuel Goepfert
Aiuto per la traduzione : Arnaldo La Scala

Contatto : metmap@orbifly.com




FONTI E CREDITI :

   NOAA